sensor_id;sensor_type;location;lat;lon;timestamp;temperature;humidity
5334;DHT22;2689;50.954;7.116;2023-04-29T00:01:04;13.30;99.90
5334;DHT22;2689;50.954;7.116;2023-04-29T00:03:31;13.30;99.90
5334;DHT22;2689;50.954;7.116;2023-04-29T00:05:57;13.20;99.90
5334;DHT22;2689;50.954;7.116;2023-04-29T00:08:26;13.20;99.90
5334;DHT22;2689;50.954;7.116;2023-04-29T00:10:52;13.10;99.90
5334;DHT22;2689;50.954;7.116;2023-04-29T00:13:20;13.10;99.90
5334;DHT22;2689;50.954;7.116;2023-04-29T00:15:46;13.10;99.90
5334;DHT22;2689;50.954;7.116;2023-04-29T00:18:13;13.10;99.90
5334;DHT22;2689;50.954;7.116;2023-04-29T00:20:40;13.10;99.90
5334;DHT22;2689;50.954;7.116;2023-04-29T00:23:07;13.00;99.90
5334;DHT22;2689;50.954;7.116;2023-04-29T00:25:35;13.00;99.90
5334;DHT22;2689;50.954;7.116;2023-04-29T00:28:03;13.00;99.90
5334;DHT22;2689;50.954;7.116;2023-04-29T00:30:30;13.00;99.90
5334;DHT22;2689;50.954;7.116;2023-04-29T00:32:57;13.00;99.90
5334;DHT22;2689;50.954;7.116;2023-04-29T00:35:23;13.00;99.90
5334;DHT22;2689;50.954;7.116;2023-04-29T00:37:50;13.00;99.90
5334;DHT22;2689;50.954;7.116;2023-04-29T00:40:17;13.00;99.90
5334;DHT22;2689;50.954;7.116;2023-04-29T00:42:45;13.00;99.90
5334;DHT22;2689;50.954;7.116;2023-04-29T00:45:12;13.00;99.90
5334;DHT22;2689;50.954;7.116;2023-04-29T00:47:38;13.00;99.90
5334;DHT22;2689;50.954;7.116;2023-04-29T00:50:06;13.00;99.90
5334;DHT22;2689;50.954;7.116;2023-04-29T00:52:33;13.00;99.90
5334;DHT22;2689;50.954;7.116;2023-04-29T00:55:00;13.10;99.90
5334;DHT22;2689;50.954;7.116;2023-04-29T00:57:27;13.00;99.90
5334;DHT22;2689;50.954;7.116;2023-04-29T00:59:56;13.00;99.90
5334;DHT22;2689;50.954;7.116;2023-04-29T01:02:24;13.00;99.90
5334;DHT22;2689;50.954;7.116;2023-04-29T01:04:51;13.00;99.90
5334;DHT22;2689;50.954;7.116;2023-04-29T01:07:22;13.00;99.90
5334;DHT22;2689;50.954;7.116;2023-04-29T01:10:00;12.90;99.90
5334;DHT22;2689;50.954;7.116;2023-04-29T01:12:32;12.90;99.90
5334;DHT22;2689;50.954;7.116;2023-04-29T01:15:07;12.90;99.90
5334;DHT22;2689;50.954;7.116;2023-04-29T01:17:38;12.90;99.90
5334;DHT22;2689;50.954;7.116;2023-04-29T01:20:08;12.90;99.90
5334;DHT22;2689;50.954;7.116;2023-04-29T01:22:35;12.90;99.90
5334;DHT22;2689;50.954;7.116;2023-04-29T01:25:05;13.00;99.90
5334;DHT22;2689;50.954;7.116;2023-04-29T01:27:34;12.90;99.90
5334;DHT22;2689;50.954;7.116;2023-04-29T01:30:08;13.00;99.90
5334;DHT22;2689;50.954;7.116;2023-04-29T01:32:45;13.00;99.90
5334;DHT22;2689;50.954;7.116;2023-04-29T01:35:21;13.00;99.90
5334;DHT22;2689;50.954;7.116;2023-04-29T01:37:55;13.00;99.90
5334;DHT22;2689;50.954;7.116;2023-04-29T01:40:31;13.00;99.90
5334;DHT22;2689;50.954;7.116;2023-04-29T01:43:00;12.90;99.90
5334;DHT22;2689;50.954;7.116;2023-04-29T01:45:30;12.90;99.90
5334;DHT22;2689;50.954;7.116;2023-04-29T01:47:58;12.90;99.90
5334;DHT22;2689;50.954;7.116;2023-04-29T01:50:26;12.90;99.90
5334;DHT22;2689;50.954;7.116;2023-04-29T01:52:53;12.90;99.90
5334;DHT22;2689;50.954;7.116;2023-04-29T01:55:19;12.80;99.90
5334;DHT22;2689;50.954;7.116;2023-04-29T01:57:48;12.70;99.90
5334;DHT22;2689;50.954;7.116;2023-04-29T02:00:15;12.70;99.90
5334;DHT22;2689;50.954;7.116;2023-04-29T02:02:41;12.70;99.90
5334;DHT22;2689;50.954;7.116;2023-04-29T02:05:09;12.60;99.90
5334;DHT22;2689;50.954;7.116;2023-04-29T02:07:35;12.60;99.90
5334;DHT22;2689;50.954;7.116;2023-04-29T02:10:02;12.50;99.90
5334;DHT22;2689;50.954;7.116;2023-04-29T02:12:29;12.50;99.90
5334;DHT22;2689;50.954;7.116;2023-04-29T02:14:57;12.40;99.90
5334;DHT22;2689;50.954;7.116;2023-04-29T02:17:24;12.40;99.90
5334;DHT22;2689;50.954;7.116;2023-04-29T02:19:51;12.40;99.90
5334;DHT22;2689;50.954;7.116;2023-04-29T02:22:19;12.30;99.90
5334;DHT22;2689;50.954;7.116;2023-04-29T02:24:46;12.30;99.90
5334;DHT22;2689;50.954;7.116;2023-04-29T02:27:13;12.30;99.90
5334;DHT22;2689;50.954;7.116;2023-04-29T02:29:40;12.40;99.90
5334;DHT22;2689;50.954;7.116;2023-04-29T02:32:08;12.30;99.90
5334;DHT22;2689;50.954;7.116;2023-04-29T02:34:35;12.30;99.90
5334;DHT22;2689;50.954;7.116;2023-04-29T02:37:01;12.30;99.90
5334;DHT22;2689;50.954;7.116;2023-04-29T02:39:28;12.20;99.90
5334;DHT22;2689;50.954;7.116;2023-04-29T02:41:55;12.20;99.90
5334;DHT22;2689;50.954;7.116;2023-04-29T02:44:22;12.20;99.90
5334;DHT22;2689;50.954;7.116;2023-04-29T02:46:50;12.10;99.90
5334;DHT22;2689;50.954;7.116;2023-04-29T02:49:18;12.10;99.90
5334;DHT22;2689;50.954;7.116;2023-04-29T02:51:45;12.00;99.90
5334;DHT22;2689;50.954;7.116;2023-04-29T02:54:14;12.00;99.90
5334;DHT22;2689;50.954;7.116;2023-04-29T02:56:41;11.90;99.90
5334;DHT22;2689;50.954;7.116;2023-04-29T02:59:08;11.90;99.90
5334;DHT22;2689;50.954;7.116;2023-04-29T03:01:35;11.90;99.90
5334;DHT22;2689;50.954;7.116;2023-04-29T03:04:03;11.90;99.90
5334;DHT22;2689;50.954;7.116;2023-04-29T03:06:31;11.90;99.90
5334;DHT22;2689;50.954;7.116;2023-04-29T03:08:58;11.90;99.90
5334;DHT22;2689;50.954;7.116;2023-04-29T03:11:25;11.90;99.90
5334;DHT22;2689;50.954;7.116;2023-04-29T03:13:52;11.80;99.90
5334;DHT22;2689;50.954;7.116;2023-04-29T03:16:18;11.80;99.90
5334;DHT22;2689;50.954;7.116;2023-04-29T03:18:45;11.80;99.90
5334;DHT22;2689;50.954;7.116;2023-04-29T03:21:13;11.80;99.90
5334;DHT22;2689;50.954;7.116;2023-04-29T03:23:41;11.70;99.90
5334;DHT22;2689;50.954;7.116;2023-04-29T03:26:09;11.70;99.90
5334;DHT22;2689;50.954;7.116;2023-04-29T03:28:36;11.70;99.90
5334;DHT22;2689;50.954;7.116;2023-04-29T03:31:02;11.60;99.90
5334;DHT22;2689;50.954;7.116;2023-04-29T03:33:29;11.60;99.90
5334;DHT22;2689;50.954;7.116;2023-04-29T03:35:56;11.50;99.90
5334;DHT22;2689;50.954;7.116;2023-04-29T03:38:22;11.50;99.90
5334;DHT22;2689;50.954;7.116;2023-04-29T03:40:51;11.50;99.90
5334;DHT22;2689;50.954;7.116;2023-04-29T03:43:18;11.40;99.90
5334;DHT22;2689;50.954;7.116;2023-04-29T03:45:45;11.40;99.90
5334;DHT22;2689;50.954;7.116;2023-04-29T03:48:11;11.40;99.90
5334;DHT22;2689;50.954;7.116;2023-04-29T03:50:38;11.30;99.90
5334;DHT22;2689;50.954;7.116;2023-04-29T03:53:05;11.30;99.90
5334;DHT22;2689;50.954;7.116;2023-04-29T03:55:32;11.30;99.90
5334;DHT22;2689;50.954;7.116;2023-04-29T03:58:00;11.20;99.90
5334;DHT22;2689;50.954;7.116;2023-04-29T04:00:28;11.20;99.90
5334;DHT22;2689;50.954;7.116;2023-04-29T04:02:55;11.20;99.90
5334;DHT22;2689;50.954;7.116;2023-04-29T04:05:23;11.10;99.90
5334;DHT22;2689;50.954;7.116;2023-04-29T04:07:50;11.10;99.90
5334;DHT22;2689;50.954;7.116;2023-04-29T04:10:17;11.00;99.90
5334;DHT22;2689;50.954;7.116;2023-04-29T04:12:44;11.00;99.90
5334;DHT22;2689;50.954;7.116;2023-04-29T04:15:13;11.00;99.90
5334;DHT22;2689;50.954;7.116;2023-04-29T04:17:39;11.00;99.90
5334;DHT22;2689;50.954;7.116;2023-04-29T04:20:07;11.00;99.90
5334;DHT22;2689;50.954;7.116;2023-04-29T04:22:34;11.00;99.90
5334;DHT22;2689;50.954;7.116;2023-04-29T04:25:00;11.00;99.90
5334;DHT22;2689;50.954;7.116;2023-04-29T04:27:27;10.90;99.90
5334;DHT22;2689;50.954;7.116;2023-04-29T04:29:54;10.90;99.90
5334;DHT22;2689;50.954;7.116;2023-04-29T04:32:22;10.90;99.90
5334;DHT22;2689;50.954;7.116;2023-04-29T04:34:49;10.90;99.90
5334;DHT22;2689;50.954;7.116;2023-04-29T04:37:16;10.90;99.90
5334;DHT22;2689;50.954;7.116;2023-04-29T04:39:43;10.90;99.90
5334;DHT22;2689;50.954;7.116;2023-04-29T04:42:09;10.90;99.90
5334;DHT22;2689;50.954;7.116;2023-04-29T04:44:37;10.90;99.90
5334;DHT22;2689;50.954;7.116;2023-04-29T04:47:03;11.00;99.90
5334;DHT22;2689;50.954;7.116;2023-04-29T04:49:32;10.90;99.90
5334;DHT22;2689;50.954;7.116;2023-04-29T04:51:59;11.00;99.90
5334;DHT22;2689;50.954;7.116;2023-04-29T04:54:26;11.00;99.90
5334;DHT22;2689;50.954;7.116;2023-04-29T04:56:52;11.00;99.90
5334;DHT22;2689;50.954;7.116;2023-04-29T04:59:19;10.90;99.90
5334;DHT22;2689;50.954;7.116;2023-04-29T05:01:46;10.90;99.90
5334;DHT22;2689;50.954;7.116;2023-04-29T05:04:13;10.90;99.90
5334;DHT22;2689;50.954;7.116;2023-04-29T05:06:41;10.80;99.90
5334;DHT22;2689;50.954;7.116;2023-04-29T05:09:07;10.80;99.90
5334;DHT22;2689;50.954;7.116;2023-04-29T05:11:34;10.80;99.90
5334;DHT22;2689;50.954;7.116;2023-04-29T05:14:01;10.80;99.90
5334;DHT22;2689;50.954;7.116;2023-04-29T05:16:28;10.80;99.90
5334;DHT22;2689;50.954;7.116;2023-04-29T05:18:55;10.80;99.90
5334;DHT22;2689;50.954;7.116;2023-04-29T05:21:21;10.90;99.90
5334;DHT22;2689;50.954;7.116;2023-04-29T05:23:49;10.80;99.90
5334;DHT22;2689;50.954;7.116;2023-04-29T05:26:16;10.90;99.90
5334;DHT22;2689;50.954;7.116;2023-04-29T05:28:43;10.90;99.90
5334;DHT22;2689;50.954;7.116;2023-04-29T05:31:09;10.80;99.90
5334;DHT22;2689;50.954;7.116;2023-04-29T05:33:36;10.80;99.90
5334;DHT22;2689;50.954;7.116;2023-04-29T05:36:03;10.80;99.90
5334;DHT22;2689;50.954;7.116;2023-04-29T05:38:31;10.80;99.90
5334;DHT22;2689;50.954;7.116;2023-04-29T05:40:59;10.80;99.90
5334;DHT22;2689;50.954;7.116;2023-04-29T05:43:25;10.90;99.90
5334;DHT22;2689;50.954;7.116;2023-04-29T05:45:52;10.90;99.90
5334;DHT22;2689;50.954;7.116;2023-04-29T05:48:20;10.90;99.90
5334;DHT22;2689;50.954;7.116;2023-04-29T05:50:47;10.90;99.90
5334;DHT22;2689;50.954;7.116;2023-04-29T05:53:13;11.00;99.90
5334;DHT22;2689;50.954;7.116;2023-04-29T05:55:40;10.90;99.90
5334;DHT22;2689;50.954;7.116;2023-04-29T05:58:10;11.00;99.90
5334;DHT22;2689;50.954;7.116;2023-04-29T06:00:37;11.00;99.90
5334;DHT22;2689;50.954;7.116;2023-04-29T06:03:05;11.00;99.90
5334;DHT22;2689;50.954;7.116;2023-04-29T06:05:32;11.00;99.90
5334;DHT22;2689;50.954;7.116;2023-04-29T06:07:59;11.00;99.90
5334;DHT22;2689;50.954;7.116;2023-04-29T06:10:26;11.00;99.90
5334;DHT22;2689;50.954;7.116;2023-04-29T06:12:53;10.90;99.90
5334;DHT22;2689;50.954;7.116;2023-04-29T06:15:21;11.00;99.90
5334;DHT22;2689;50.954;7.116;2023-04-29T06:17:48;11.00;99.90
5334;DHT22;2689;50.954;7.116;2023-04-29T06:20:15;11.00;99.90
5334;DHT22;2689;50.954;7.116;2023-04-29T06:22:41;11.00;99.90
5334;DHT22;2689;50.954;7.116;2023-04-29T06:25:08;11.00;99.90
5334;DHT22;2689;50.954;7.116;2023-04-29T06:27:35;11.00;99.90
5334;DHT22;2689;50.954;7.116;2023-04-29T06:30:02;11.10;99.90
5334;DHT22;2689;50.954;7.116;2023-04-29T06:32:30;11.10;99.90
5334;DHT22;2689;50.954;7.116;2023-04-29T06:34:57;11.10;99.90
5334;DHT22;2689;50.954;7.116;2023-04-29T06:37:23;11.10;99.90
5334;DHT22;2689;50.954;7.116;2023-04-29T06:39:50;11.20;99.90
5334;DHT22;2689;50.954;7.116;2023-04-29T06:42:17;11.20;99.90
5334;DHT22;2689;50.954;7.116;2023-04-29T06:44:44;11.20;99.90
5334;DHT22;2689;50.954;7.116;2023-04-29T06:47:10;11.20;99.90
5334;DHT22;2689;50.954;7.116;2023-04-29T06:49:38;11.20;99.90
5334;DHT22;2689;50.954;7.116;2023-04-29T06:52:05;11.20;99.90
5334;DHT22;2689;50.954;7.116;2023-04-29T06:54:32;11.30;99.90
5334;DHT22;2689;50.954;7.116;2023-04-29T06:56:58;11.30;99.90
5334;DHT22;2689;50.954;7.116;2023-04-29T06:59:26;11.30;99.90
5334;DHT22;2689;50.954;7.116;2023-04-29T07:01:53;11.30;99.90
5334;DHT22;2689;50.954;7.116;2023-04-29T07:04:20;11.40;99.90
5334;DHT22;2689;50.954;7.116;2023-04-29T07:06:48;11.40;99.90
5334;DHT22;2689;50.954;7.116;2023-04-29T07:09:15;11.40;99.90
5334;DHT22;2689;50.954;7.116;2023-04-29T07:11:42;11.40;99.90
5334;DHT22;2689;50.954;7.116;2023-04-29T07:14:08;11.40;99.90
5334;DHT22;2689;50.954;7.116;2023-04-29T07:16:35;11.40;99.90
5334;DHT22;2689;50.954;7.116;2023-04-29T07:19:02;11.40;99.90
5334;DHT22;2689;50.954;7.116;2023-04-29T07:21:29;11.50;99.90
5334;DHT22;2689;50.954;7.116;2023-04-29T07:23:57;11.50;99.90
5334;DHT22;2689;50.954;7.116;2023-04-29T07:26:25;11.60;99.90
5334;DHT22;2689;50.954;7.116;2023-04-29T07:28:52;11.70;99.90
5334;DHT22;2689;50.954;7.116;2023-04-29T07:31:19;11.70;99.90
5334;DHT22;2689;50.954;7.116;2023-04-29T07:33:46;11.60;99.90
5334;DHT22;2689;50.954;7.116;2023-04-29T07:36:13;11.70;99.90
5334;DHT22;2689;50.954;7.116;2023-04-29T07:38:40;11.70;99.90
5334;DHT22;2689;50.954;7.116;2023-04-29T07:41:08;11.70;99.90
5334;DHT22;2689;50.954;7.116;2023-04-29T07:43:34;11.70;99.90
5334;DHT22;2689;50.954;7.116;2023-04-29T07:46:01;11.70;99.90
5334;DHT22;2689;50.954;7.116;2023-04-29T07:48:28;11.70;99.90
5334;DHT22;2689;50.954;7.116;2023-04-29T07:50:55;11.80;99.90
5334;DHT22;2689;50.954;7.116;2023-04-29T07:53:21;11.80;99.90
5334;DHT22;2689;50.954;7.116;2023-04-29T07:55:48;11.80;99.90
5334;DHT22;2689;50.954;7.116;2023-04-29T07:58:16;11.80;99.90
5334;DHT22;2689;50.954;7.116;2023-04-29T08:00:43;11.80;99.90
5334;DHT22;2689;50.954;7.116;2023-04-29T08:03:09;11.80;99.90
5334;DHT22;2689;50.954;7.116;2023-04-29T08:05:36;11.90;99.90
5334;DHT22;2689;50.954;7.116;2023-04-29T08:08:03;11.90;99.90
5334;DHT22;2689;50.954;7.116;2023-04-29T08:10:30;11.90;99.90
5334;DHT22;2689;50.954;7.116;2023-04-29T08:12:57;11.90;99.90
5334;DHT22;2689;50.954;7.116;2023-04-29T08:15:25;11.90;99.90
5334;DHT22;2689;50.954;7.116;2023-04-29T08:17:51;11.90;99.90
5334;DHT22;2689;50.954;7.116;2023-04-29T08:20:18;11.90;99.90
5334;DHT22;2689;50.954;7.116;2023-04-29T08:22:45;12.00;99.90
5334;DHT22;2689;50.954;7.116;2023-04-29T08:25:12;12.10;99.90
5334;DHT22;2689;50.954;7.116;2023-04-29T08:27:39;12.20;99.90
5334;DHT22;2689;50.954;7.116;2023-04-29T08:30:08;12.20;99.90
5334;DHT22;2689;50.954;7.116;2023-04-29T08:32:36;12.30;99.90
5334;DHT22;2689;50.954;7.116;2023-04-29T08:35:03;12.40;99.90
5334;DHT22;2689;50.954;7.116;2023-04-29T08:37:30;12.40;99.90
5334;DHT22;2689;50.954;7.116;2023-04-29T08:39:57;12.50;99.90
5334;DHT22;2689;50.954;7.116;2023-04-29T08:42:31;12.60;99.90
5334;DHT22;2689;50.954;7.116;2023-04-29T08:44:59;12.60;99.90
5334;DHT22;2689;50.954;7.116;2023-04-29T08:47:26;12.70;99.90
5334;DHT22;2689;50.954;7.116;2023-04-29T08:49:57;12.70;99.90
5334;DHT22;2689;50.954;7.116;2023-04-29T08:52:26;12.60;99.90
5334;DHT22;2689;50.954;7.116;2023-04-29T08:54:53;12.60;99.90
5334;DHT22;2689;50.954;7.116;2023-04-29T08:57:20;12.50;99.90
5334;DHT22;2689;50.954;7.116;2023-04-29T08:59:48;12.40;99.90
5334;DHT22;2689;50.954;7.116;2023-04-29T09:02:15;12.40;99.90
5334;DHT22;2689;50.954;7.116;2023-04-29T09:04:46;12.50;99.90
5334;DHT22;2689;50.954;7.116;2023-04-29T09:07:17;12.50;99.90
5334;DHT22;2689;50.954;7.116;2023-04-29T09:09:44;12.60;99.90
5334;DHT22;2689;50.954;7.116;2023-04-29T09:12:11;12.60;99.90
5334;DHT22;2689;50.954;7.116;2023-04-29T09:14:38;12.60;99.90
5334;DHT22;2689;50.954;7.116;2023-04-29T09:17:05;12.60;99.90
5334;DHT22;2689;50.954;7.116;2023-04-29T09:19:33;12.60;99.90
5334;DHT22;2689;50.954;7.116;2023-04-29T09:22:01;12.50;99.90
5334;DHT22;2689;50.954;7.116;2023-04-29T09:24:30;12.50;99.90
5334;DHT22;2689;50.954;7.116;2023-04-29T09:26:57;12.40;99.90
5334;DHT22;2689;50.954;7.116;2023-04-29T09:29:24;12.40;99.90
5334;DHT22;2689;50.954;7.116;2023-04-29T09:31:51;12.50;99.90
5334;DHT22;2689;50.954;7.116;2023-04-29T09:34:30;12.50;99.90
5334;DHT22;2689;50.954;7.116;2023-04-29T09:36:57;12.50;99.90
5334;DHT22;2689;50.954;7.116;2023-04-29T09:39:24;12.50;99.90
5334;DHT22;2689;50.954;7.116;2023-04-29T09:41:59;12.50;99.90
5334;DHT22;2689;50.954;7.116;2023-04-29T09:44:29;12.50;99.90
5334;DHT22;2689;50.954;7.116;2023-04-29T09:46:57;12.60;99.90
5334;DHT22;2689;50.954;7.116;2023-04-29T09:49:25;12.60;99.90
5334;DHT22;2689;50.954;7.116;2023-04-29T09:51:53;12.60;99.90
5334;DHT22;2689;50.954;7.116;2023-04-29T09:54:20;12.50;99.90
5334;DHT22;2689;50.954;7.116;2023-04-29T09:56:48;12.50;99.90
5334;DHT22;2689;50.954;7.116;2023-04-29T09:59:17;12.50;99.90
5334;DHT22;2689;50.954;7.116;2023-04-29T10:01:46;12.40;99.90
5334;DHT22;2689;50.954;7.116;2023-04-29T10:04:15;12.40;99.90
5334;DHT22;2689;50.954;7.116;2023-04-29T10:06:43;12.30;99.90
5334;DHT22;2689;50.954;7.116;2023-04-29T10:09:13;12.40;99.90
5334;DHT22;2689;50.954;7.116;2023-04-29T10:11:42;12.50;99.90
5334;DHT22;2689;50.954;7.116;2023-04-29T10:14:11;12.50;99.90
5334;DHT22;2689;50.954;7.116;2023-04-29T10:16:44;12.50;99.90
5334;DHT22;2689;50.954;7.116;2023-04-29T10:19:16;12.70;99.90
5334;DHT22;2689;50.954;7.116;2023-04-29T10:21:44;12.80;99.90
5334;DHT22;2689;50.954;7.116;2023-04-29T10:24:12;12.90;99.90
5334;DHT22;2689;50.954;7.116;2023-04-29T10:26:41;12.90;99.90
5334;DHT22;2689;50.954;7.116;2023-04-29T10:29:10;12.90;99.90
5334;DHT22;2689;50.954;7.116;2023-04-29T10:31:37;13.00;99.90
5334;DHT22;2689;50.954;7.116;2023-04-29T10:34:06;13.00;99.90
5334;DHT22;2689;50.954;7.116;2023-04-29T10:36:34;12.90;99.90
5334;DHT22;2689;50.954;7.116;2023-04-29T10:39:03;12.90;99.90
5334;DHT22;2689;50.954;7.116;2023-04-29T10:41:36;12.90;99.90
5334;DHT22;2689;50.954;7.116;2023-04-29T10:44:09;12.80;99.90
5334;DHT22;2689;50.954;7.116;2023-04-29T10:46:35;12.70;99.90
5334;DHT22;2689;50.954;7.116;2023-04-29T10:49:05;12.70;99.90
5334;DHT22;2689;50.954;7.116;2023-04-29T10:51:33;12.60;99.90
5334;DHT22;2689;50.954;7.116;2023-04-29T10:54:02;12.50;99.90
5334;DHT22;2689;50.954;7.116;2023-04-29T10:56:42;12.50;99.90
5334;DHT22;2689;50.954;7.116;2023-04-29T10:59:11;12.40;99.90
5334;DHT22;2689;50.954;7.116;2023-04-29T11:01:43;12.40;99.90
5334;DHT22;2689;50.954;7.116;2023-04-29T11:04:11;12.40;99.90
5334;DHT22;2689;50.954;7.116;2023-04-29T11:06:41;12.40;99.90
5334;DHT22;2689;50.954;7.116;2023-04-29T11:09:11;12.50;99.90
5334;DHT22;2689;50.954;7.116;2023-04-29T11:11:56;12.60;99.90
5334;DHT22;2689;50.954;7.116;2023-04-29T11:14:25;12.60;99.90
5334;DHT22;2689;50.954;7.116;2023-04-29T11:16:53;12.70;99.90
5334;DHT22;2689;50.954;7.116;2023-04-29T11:19:25;12.70;99.90
5334;DHT22;2689;50.954;7.116;2023-04-29T11:22:14;12.70;99.90
5334;DHT22;2689;50.954;7.116;2023-04-29T11:24:51;12.70;99.90
5334;DHT22;2689;50.954;7.116;2023-04-29T11:27:19;12.70;99.90
5334;DHT22;2689;50.954;7.116;2023-04-29T11:29:50;12.70;99.90
5334;DHT22;2689;50.954;7.116;2023-04-29T11:32:19;12.70;99.90
5334;DHT22;2689;50.954;7.116;2023-04-29T11:34:48;12.70;99.90
5334;DHT22;2689;50.954;7.116;2023-04-29T11:37:19;12.80;99.90
5334;DHT22;2689;50.954;7.116;2023-04-29T11:39:47;12.80;99.90
5334;DHT22;2689;50.954;7.116;2023-04-29T11:42:17;12.80;99.90
5334;DHT22;2689;50.954;7.116;2023-04-29T11:44:44;12.80;99.90
5334;DHT22;2689;50.954;7.116;2023-04-29T11:47:11;12.80;99.90
5334;DHT22;2689;50.954;7.116;2023-04-29T11:49:38;12.80;99.90
5334;DHT22;2689;50.954;7.116;2023-04-29T11:52:06;12.90;99.90
5334;DHT22;2689;50.954;7.116;2023-04-29T11:54:33;12.90;99.90
5334;DHT22;2689;50.954;7.116;2023-04-29T11:57:00;12.90;99.90
5334;DHT22;2689;50.954;7.116;2023-04-29T11:59:30;12.90;99.90
5334;DHT22;2689;50.954;7.116;2023-04-29T12:01:57;13.00;99.90
5334;DHT22;2689;50.954;7.116;2023-04-29T12:04:24;13.10;99.90
5334;DHT22;2689;50.954;7.116;2023-04-29T12:06:51;13.10;99.90
5334;DHT22;2689;50.954;7.116;2023-04-29T12:09:19;13.10;99.90
5334;DHT22;2689;50.954;7.116;2023-04-29T12:11:48;13.10;99.90
5334;DHT22;2689;50.954;7.116;2023-04-29T12:14:15;13.10;99.90
5334;DHT22;2689;50.954;7.116;2023-04-29T12:16:43;13.10;99.90
5334;DHT22;2689;50.954;7.116;2023-04-29T12:19:10;13.10;99.90
5334;DHT22;2689;50.954;7.116;2023-04-29T12:21:47;13.10;99.90
5334;DHT22;2689;50.954;7.116;2023-04-29T12:24:14;13.10;99.90
5334;DHT22;2689;50.954;7.116;2023-04-29T12:26:44;13.10;99.90
5334;DHT22;2689;50.954;7.116;2023-04-29T12:29:11;13.10;99.90
5334;DHT22;2689;50.954;7.116;2023-04-29T12:31:38;13.10;99.90
5334;DHT22;2689;50.954;7.116;2023-04-29T12:34:06;13.10;99.90
5334;DHT22;2689;50.954;7.116;2023-04-29T12:36:33;13.00;99.90
5334;DHT22;2689;50.954;7.116;2023-04-29T12:39:04;13.00;99.90
5334;DHT22;2689;50.954;7.116;2023-04-29T12:41:38;13.00;99.90
5334;DHT22;2689;50.954;7.116;2023-04-29T12:44:07;13.00;99.90
5334;DHT22;2689;50.954;7.116;2023-04-29T12:46:35;13.10;99.90
5334;DHT22;2689;50.954;7.116;2023-04-29T12:49:03;13.20;99.90
5334;DHT22;2689;50.954;7.116;2023-04-29T12:51:30;13.30;99.90
5334;DHT22;2689;50.954;7.116;2023-04-29T12:53:57;13.40;99.90
5334;DHT22;2689;50.954;7.116;2023-04-29T12:56:24;13.50;99.90
5334;DHT22;2689;50.954;7.116;2023-04-29T12:58:52;13.50;99.90
5334;DHT22;2689;50.954;7.116;2023-04-29T13:01:20;13.70;99.90
5334;DHT22;2689;50.954;7.116;2023-04-29T13:03:46;14.00;99.90
5334;DHT22;2689;50.954;7.116;2023-04-29T13:06:14;14.40;99.90
5334;DHT22;2689;50.954;7.116;2023-04-29T13:08:40;14.60;99.90
5334;DHT22;2689;50.954;7.116;2023-04-29T13:11:07;14.80;99.90
5334;DHT22;2689;50.954;7.116;2023-04-29T13:13:34;15.00;99.90
5334;DHT22;2689;50.954;7.116;2023-04-29T13:16:01;15.30;99.90
5334;DHT22;2689;50.954;7.116;2023-04-29T13:18:29;15.50;99.90
5334;DHT22;2689;50.954;7.116;2023-04-29T13:20:56;15.80;99.90
5334;DHT22;2689;50.954;7.116;2023-04-29T13:23:23;15.90;99.90
5334;DHT22;2689;50.954;7.116;2023-04-29T13:25:50;16.10;99.90
5334;DHT22;2689;50.954;7.116;2023-04-29T13:28:17;16.10;98.40
5334;DHT22;2689;50.954;7.116;2023-04-29T13:30:43;16.20;98.20
5334;DHT22;2689;50.954;7.116;2023-04-29T13:33:10;15.90;98.80
5334;DHT22;2689;50.954;7.116;2023-04-29T13:35:39;15.90;99.20
5334;DHT22;2689;50.954;7.116;2023-04-29T13:38:06;15.90;98.60
5334;DHT22;2689;50.954;7.116;2023-04-29T13:40:32;16.10;98.70
5334;DHT22;2689;50.954;7.116;2023-04-29T13:42:59;16.20;98.70
5334;DHT22;2689;50.954;7.116;2023-04-29T13:45:26;16.30;97.90
5334;DHT22;2689;50.954;7.116;2023-04-29T13:47:53;16.30;97.00
5334;DHT22;2689;50.954;7.116;2023-04-29T13:50:20;16.30;97.20
5334;DHT22;2689;50.954;7.116;2023-04-29T13:52:48;16.40;97.60
5334;DHT22;2689;50.954;7.116;2023-04-29T13:55:15;16.70;98.10
5334;DHT22;2689;50.954;7.116;2023-04-29T13:57:41;16.80;98.10
5334;DHT22;2689;50.954;7.116;2023-04-29T14:00:09;16.90;97.50
5334;DHT22;2689;50.954;7.116;2023-04-29T14:02:37;16.80;95.80
5334;DHT22;2689;50.954;7.116;2023-04-29T14:05:04;16.70;95.90
5334;DHT22;2689;50.954;7.116;2023-04-29T14:07:31;16.60;96.60
5334;DHT22;2689;50.954;7.116;2023-04-29T14:09:59;16.50;96.80
5334;DHT22;2689;50.954;7.116;2023-04-29T14:12:26;16.40;96.90
5334;DHT22;2689;50.954;7.116;2023-04-29T14:14:53;16.30;96.90
5334;DHT22;2689;50.954;7.116;2023-04-29T14:17:20;16.20;97.20
5334;DHT22;2689;50.954;7.116;2023-04-29T14:19:46;16.10;97.20
5334;DHT22;2689;50.954;7.116;2023-04-29T14:22:13;16.00;97.70
5334;DHT22;2689;50.954;7.116;2023-04-29T14:24:40;15.90;98.10
5334;DHT22;2689;50.954;7.116;2023-04-29T14:27:08;15.70;97.30
5334;DHT22;2689;50.954;7.116;2023-04-29T14:29:35;15.60;97.30
5334;DHT22;2689;50.954;7.116;2023-04-29T14:32:01;15.50;97.80
5334;DHT22;2689;50.954;7.116;2023-04-29T14:34:28;15.40;98.20
5334;DHT22;2689;50.954;7.116;2023-04-29T14:36:55;15.30;98.10
5334;DHT22;2689;50.954;7.116;2023-04-29T14:39:23;15.30;98.00
5334;DHT22;2689;50.954;7.116;2023-04-29T14:41:50;15.20;98.20
5334;DHT22;2689;50.954;7.116;2023-04-29T14:44:18;15.20;98.10
5334;DHT22;2689;50.954;7.116;2023-04-29T14:46:45;15.10;98.50
5334;DHT22;2689;50.954;7.116;2023-04-29T14:49:12;15.10;99.00
5334;DHT22;2689;50.954;7.116;2023-04-29T14:51:38;15.10;99.20
5334;DHT22;2689;50.954;7.116;2023-04-29T14:54:05;15.10;98.80
5334;DHT22;2689;50.954;7.116;2023-04-29T14:56:33;15.10;98.60
5334;DHT22;2689;50.954;7.116;2023-04-29T14:59:01;15.10;98.40
5334;DHT22;2689;50.954;7.116;2023-04-29T15:01:29;15.20;99.00
5334;DHT22;2689;50.954;7.116;2023-04-29T15:03:56;15.20;98.80
5334;DHT22;2689;50.954;7.116;2023-04-29T15:06:22;15.20;98.50
5334;DHT22;2689;50.954;7.116;2023-04-29T15:08:49;15.20;98.80
5334;DHT22;2689;50.954;7.116;2023-04-29T15:11:16;15.20;98.00
5334;DHT22;2689;50.954;7.116;2023-04-29T15:13:42;15.20;98.10
5334;DHT22;2689;50.954;7.116;2023-04-29T15:16:09;15.20;98.20
5334;DHT22;2689;50.954;7.116;2023-04-29T15:18:37;15.40;98.00
5334;DHT22;2689;50.954;7.116;2023-04-29T15:21:04;15.20;98.00
5334;DHT22;2689;50.954;7.116;2023-04-29T15:23:32;15.20;97.70
5334;DHT22;2689;50.954;7.116;2023-04-29T15:25:59;15.20;98.40
5334;DHT22;2689;50.954;7.116;2023-04-29T15:28:25;15.30;98.70
5334;DHT22;2689;50.954;7.116;2023-04-29T15:30:52;15.30;98.10
5334;DHT22;2689;50.954;7.116;2023-04-29T15:33:19;15.40;97.30
5334;DHT22;2689;50.954;7.116;2023-04-29T15:35:47;15.30;97.30
5334;DHT22;2689;50.954;7.116;2023-04-29T15:38:14;15.40;97.20
5334;DHT22;2689;50.954;7.116;2023-04-29T15:40:41;15.50;97.10
5334;DHT22;2689;50.954;7.116;2023-04-29T15:43:07;15.50;97.10
5334;DHT22;2689;50.954;7.116;2023-04-29T15:45:34;15.60;96.70
5334;DHT22;2689;50.954;7.116;2023-04-29T15:48:01;15.70;96.60
5334;DHT22;2689;50.954;7.116;2023-04-29T15:50:28;15.70;95.40
5334;DHT22;2689;50.954;7.116;2023-04-29T15:52:56;15.70;95.60
5334;DHT22;2689;50.954;7.116;2023-04-29T15:55:24;16.10;95.70
5334;DHT22;2689;50.954;7.116;2023-04-29T15:57:51;15.60;95.50
5334;DHT22;2689;50.954;7.116;2023-04-29T16:00:20;15.60;96.10
5334;DHT22;2689;50.954;7.116;2023-04-29T16:02:47;15.70;95.50
5334;DHT22;2689;50.954;7.116;2023-04-29T16:05:14;15.60;95.30